createdAt,value
2022-11-30T00:00:48.363Z,92.63
2022-11-30T00:02:54.060Z,92.83
2022-11-30T00:04:56.749Z,92.81
2022-11-30T00:06:59.483Z,92.62
2022-11-30T00:09:02.122Z,92.82
2022-11-30T00:11:11.751Z,92.77
2022-11-30T00:13:14.344Z,93.25
2022-11-30T00:15:17.760Z,92.93
2022-11-30T00:17:20.720Z,93.14
2022-11-30T00:19:23.310Z,93.24
2022-11-30T00:21:25.940Z,92.78
2022-11-30T00:23:39.926Z,92.45
2022-11-30T00:25:42.512Z,93.22
2022-11-30T00:27:45.106Z,93.10
2022-11-30T00:29:47.697Z,92.55
2022-11-30T00:31:50.479Z,92.58
2022-11-30T00:33:53.089Z,92.70
2022-11-30T00:35:57.319Z,92.72
2022-11-30T00:38:02.785Z,92.34
2022-11-30T00:40:06.663Z,92.32
2022-11-30T00:42:10.197Z,92.48
2022-11-30T00:44:12.880Z,91.74
2022-11-30T00:46:15.599Z,92.15
2022-11-30T00:48:18.175Z,92.23
2022-11-30T00:50:20.804Z,92.50
2022-11-30T00:52:23.553Z,92.56
2022-11-30T00:54:26.099Z,92.89
2022-11-30T00:56:28.726Z,92.51
2022-11-30T00:58:31.255Z,92.74
2022-11-30T01:00:34.021Z,93.02
2022-11-30T01:02:36.648Z,92.95
2022-11-30T01:04:39.302Z,92.89
2022-11-30T01:06:42.089Z,92.89
2022-11-30T01:08:44.703Z,92.59
2022-11-30T01:10:51.109Z,92.28
2022-11-30T01:12:54.528Z,92.58
2022-11-30T01:14:57.040Z,92.27
2022-11-30T01:16:59.624Z,92.96
2022-11-30T01:19:04.397Z,92.80
2022-11-30T01:21:13.555Z,93.56
2022-11-30T01:23:16.202Z,92.68
2022-11-30T01:25:18.764Z,92.78
2022-11-30T01:27:21.355Z,92.96
2022-11-30T01:29:24.018Z,92.87
2022-11-30T01:31:26.652Z,92.97
2022-11-30T01:33:29.581Z,92.78
2022-11-30T01:35:32.241Z,92.75
2022-11-30T01:37:35.302Z,92.54
2022-11-30T01:39:37.965Z,92.34
2022-11-30T01:41:40.854Z,92.16
2022-11-30T01:43:49.910Z,91.76
2022-11-30T01:45:52.596Z,92.45
2022-11-30T01:47:57.584Z,92.50
2022-11-30T01:50:09.770Z,92.81
2022-11-30T01:52:24.480Z,92.65
2022-11-30T01:54:33.020Z,92.65
2022-11-30T01:56:37.394Z,92.62
2022-11-30T01:58:40.037Z,92.96
2022-11-30T02:00:47.219Z,92.22
2022-11-30T02:03:11.501Z,92.75
2022-11-30T02:05:15.463Z,92.33
2022-11-30T02:07:18.223Z,91.65
2022-11-30T02:09:22.299Z,92.22
2022-11-30T02:11:28.868Z,92.01
2022-11-30T02:13:34.399Z,91.89
2022-11-30T02:15:53.167Z,91.50
2022-11-30T02:18:10.479Z,91.72
2022-11-30T02:20:21.997Z,91.82
2022-11-30T02:22:46.427Z,92.33
2022-11-30T02:24:49.359Z,92.51
2022-11-30T02:27:15.401Z,92.26
2022-11-30T02:29:18.195Z,92.70
2022-11-30T02:31:26.992Z,92.64
2022-11-30T02:33:32.513Z,92.83
2022-11-30T02:35:39.102Z,92.82
2022-11-30T02:37:43.469Z,93.13
2022-11-30T02:39:46.132Z,92.19
2022-11-30T02:41:48.753Z,92.08
2022-11-30T02:43:52.199Z,92.07
2022-11-30T02:46:09.941Z,92.56
2022-11-30T02:48:18.769Z,92.88
2022-11-30T02:51:10.941Z,92.81
2022-11-30T02:53:13.768Z,92.85
2022-11-30T02:55:18.945Z,92.99
2022-11-30T02:57:21.583Z,92.61
2022-11-30T02:59:24.300Z,92.96
2022-11-30T03:01:27.065Z,93.08
2022-11-30T03:03:29.765Z,93.50
2022-11-30T03:05:32.909Z,91.87
2022-11-30T03:07:35.778Z,92.11
2022-11-30T03:09:38.431Z,92.53
2022-11-30T03:11:41.007Z,92.65
2022-11-30T03:13:43.619Z,92.63
2022-11-30T03:15:46.331Z,92.44
2022-11-30T03:17:48.946Z,92.91
2022-11-30T03:19:51.581Z,91.49
2022-11-30T03:21:54.135Z,91.22
2022-11-30T03:23:56.813Z,91.46
2022-11-30T03:25:59.973Z,92.21
2022-11-30T03:28:02.682Z,92.05
2022-11-30T03:30:06.062Z,91.60
2022-11-30T03:32:08.890Z,91.38
2022-11-30T03:34:11.457Z,91.76
2022-11-30T03:36:14.441Z,92.20
2022-11-30T03:38:17.031Z,91.52
2022-11-30T03:40:20.119Z,91.63
2022-11-30T03:42:22.801Z,91.97
2022-11-30T03:44:25.493Z,91.45
2022-11-30T03:46:28.133Z,91.57
2022-11-30T03:48:31.810Z,91.35
2022-11-30T03:50:34.451Z,91.04
2022-11-30T03:52:37.052Z,90.96
2022-11-30T03:54:39.678Z,90.79
2022-11-30T03:56:42.221Z,90.62
2022-11-30T03:58:44.875Z,90.49
2022-11-30T04:00:47.768Z,90.15
2022-11-30T04:02:50.415Z,90.37
2022-11-30T04:04:53.328Z,90.80
2022-11-30T04:06:56.026Z,90.79
2022-11-30T04:08:58.605Z,90.62
2022-11-30T04:11:02.401Z,90.40
2022-11-30T04:13:05.017Z,90.50
2022-11-30T04:15:08.357Z,90.46
2022-11-30T04:17:11.016Z,90.65
2022-11-30T04:19:13.540Z,91.02
2022-11-30T04:21:16.091Z,91.23
2022-11-30T04:23:18.767Z,90.88
2022-11-30T04:25:21.395Z,91.16
2022-11-30T04:27:23.936Z,91.31
2022-11-30T04:29:26.508Z,91.12
2022-11-30T04:31:29.103Z,91.03
2022-11-30T04:33:32.026Z,90.99
2022-11-30T04:35:38.557Z,91.05
2022-11-30T04:37:41.202Z,91.70
2022-11-30T04:39:43.816Z,91.88
2022-11-30T04:41:46.452Z,91.56
2022-11-30T04:43:49.150Z,91.56
2022-11-30T04:45:51.941Z,91.74
2022-11-30T04:47:54.576Z,91.46
2022-11-30T04:49:57.164Z,91.88
2022-11-30T04:51:59.690Z,91.71
2022-11-30T04:54:02.411Z,91.64
2022-11-30T04:56:09.955Z,91.60
2022-11-30T04:58:12.653Z,92.05
2022-11-30T05:00:17.923Z,92.65
2022-11-30T05:02:20.533Z,92.28
2022-11-30T05:04:23.180Z,92.01
2022-11-30T05:06:26.750Z,92.52
2022-11-30T05:08:29.424Z,92.63
2022-11-30T05:10:34.014Z,92.69
2022-11-30T05:12:36.831Z,93.15
2022-11-30T05:14:39.344Z,93.38
2022-11-30T05:16:41.956Z,93.60
2022-11-30T05:18:44.606Z,93.28
2022-11-30T05:20:51.584Z,92.98
2022-11-30T05:22:54.099Z,93.16
2022-11-30T05:24:56.637Z,93.40
2022-11-30T05:27:00.224Z,93.02
2022-11-30T05:29:06.640Z,93.46
2022-11-30T05:31:09.418Z,93.64
2022-11-30T05:33:12.500Z,93.13
2022-11-30T05:35:15.138Z,92.74
2022-11-30T05:37:17.763Z,92.95
2022-11-30T05:39:20.362Z,92.76
2022-11-30T05:41:23.110Z,93.08
2022-11-30T05:43:25.723Z,92.80
2022-11-30T05:45:28.975Z,92.47
2022-11-30T05:47:31.555Z,92.22
2022-11-30T05:49:34.226Z,92.74
2022-11-30T05:51:36.790Z,91.81
2022-11-30T05:53:39.917Z,91.99
2022-11-30T05:55:42.533Z,92.26
2022-11-30T05:57:45.075Z,92.77
2022-11-30T05:59:47.678Z,92.56
2022-11-30T06:01:53.112Z,92.27
2022-11-30T06:03:56.434Z,91.49
2022-11-30T06:05:59.071Z,91.95
2022-11-30T06:08:01.785Z,91.54
2022-11-30T06:10:05.259Z,90.77
2022-11-30T06:12:08.250Z,90.27
2022-11-30T06:14:10.852Z,89.22
2022-11-30T06:16:13.532Z,89.49
2022-11-30T06:18:16.138Z,90.02
2022-11-30T06:20:18.764Z,89.73
2022-11-30T06:22:21.692Z,89.52
2022-11-30T06:24:24.291Z,89.14
2022-11-30T06:26:26.861Z,87.60
2022-11-30T06:28:29.678Z,88.17
2022-11-30T06:30:32.270Z,88.68
2022-11-30T06:32:34.826Z,89.54
2022-11-30T06:34:37.756Z,90.06
2022-11-30T06:36:40.284Z,88.74
2022-11-30T06:38:42.861Z,88.81
2022-11-30T06:40:45.600Z,88.53
2022-11-30T06:42:48.495Z,88.86
2022-11-30T06:44:51.244Z,88.88
2022-11-30T06:46:54.099Z,88.71
2022-11-30T06:48:56.904Z,87.80
2022-11-30T06:51:00.740Z,88.38
2022-11-30T06:53:04.159Z,87.20
2022-11-30T06:55:08.462Z,87.54
2022-11-30T06:57:11.911Z,87.32
2022-11-30T06:59:14.964Z,86.33
2022-11-30T07:01:17.763Z,86.80
2022-11-30T07:03:20.432Z,87.22
2022-11-30T07:05:23.407Z,87.41
2022-11-30T07:07:31.247Z,87.95
2022-11-30T07:09:35.850Z,87.17
2022-11-30T07:11:38.545Z,86.58
2022-11-30T07:13:41.613Z,86.87
2022-11-30T07:15:46.612Z,86.88
2022-11-30T07:17:49.394Z,87.06
2022-11-30T07:19:52.213Z,86.68
2022-11-30T07:21:54.771Z,86.29
2022-11-30T07:24:16.013Z,86.50
2022-11-30T07:26:18.930Z,87.29
2022-11-30T07:28:21.925Z,86.56
2022-11-30T07:30:24.775Z,86.97
2022-11-30T07:32:27.692Z,87.46
2022-11-30T07:34:30.349Z,87.38
2022-11-30T07:36:35.063Z,87.68
2022-11-30T07:38:38.164Z,87.48
2022-11-30T07:40:40.921Z,88.10
2022-11-30T07:42:43.645Z,87.59
2022-11-30T07:44:46.641Z,87.48
2022-11-30T07:46:49.474Z,87.18
2022-11-30T07:48:52.672Z,87.55
2022-11-30T07:51:01.513Z,87.33
2022-11-30T07:53:04.188Z,86.94
2022-11-30T07:55:07.591Z,87.40
2022-11-30T07:57:10.154Z,86.36
2022-11-30T07:59:12.850Z,86.30
2022-11-30T08:01:22.047Z,87.14
2022-11-30T08:03:25.248Z,86.95
2022-11-30T08:05:28.492Z,85.10
2022-11-30T08:07:31.667Z,86.17
2022-11-30T08:09:35.436Z,85.01
2022-11-30T08:11:39.120Z,84.31
2022-11-30T08:13:42.741Z,84.26
2022-11-30T08:15:45.757Z,85.74
2022-11-30T08:17:50.367Z,86.06
2022-11-30T08:19:53.457Z,85.59
2022-11-30T08:21:56.481Z,85.07
2022-11-30T08:23:59.522Z,86.50
2022-11-30T08:26:28.044Z,86.35
2022-11-30T08:28:31.201Z,84.80
2022-11-30T08:30:34.288Z,84.81
2022-11-30T08:32:37.295Z,85.61
2022-11-30T08:34:40.272Z,85.07
2022-11-30T08:36:47.105Z,85.25
2022-11-30T08:38:53.355Z,85.84
2022-11-30T08:40:58.694Z,86.25
2022-11-30T08:43:01.429Z,85.55
2022-11-30T08:45:04.513Z,84.98
2022-11-30T08:47:07.644Z,84.47
2022-11-30T08:49:21.529Z,84.78
2022-11-30T08:51:25.097Z,84.78
2022-11-30T08:53:27.888Z,85.13
2022-11-30T08:55:30.528Z,85.59
2022-11-30T08:57:33.843Z,86.20
2022-11-30T08:59:36.581Z,87.02
2022-11-30T09:01:39.426Z,86.75
2022-11-30T09:03:43.281Z,86.05
2022-11-30T09:05:45.923Z,86.41
2022-11-30T09:07:48.615Z,86.11
2022-11-30T09:09:51.299Z,86.00
2022-11-30T09:11:53.944Z,85.67
2022-11-30T09:13:58.541Z,84.00
2022-11-30T09:16:01.267Z,84.77
2022-11-30T09:18:04.068Z,84.07
2022-11-30T09:20:07.912Z,84.21
2022-11-30T09:22:10.559Z,83.72
2022-11-30T09:24:13.191Z,83.32
2022-11-30T09:26:18.069Z,82.68
2022-11-30T09:28:20.666Z,83.24
2022-11-30T09:30:23.276Z,82.42
2022-11-30T09:32:26.226Z,82.71
2022-11-30T09:34:28.885Z,82.71
2022-11-30T09:36:33.115Z,83.03
2022-11-30T09:38:36.588Z,83.00
2022-11-30T09:40:41.914Z,83.72
2022-11-30T09:42:49.543Z,83.57
2022-11-30T09:45:09.848Z,83.67
2022-11-30T09:47:36.330Z,83.93
2022-11-30T09:49:47.901Z,83.10
2022-11-30T09:51:52.758Z,83.33
2022-11-30T09:54:09.043Z,82.95
2022-11-30T09:56:26.763Z,83.53
2022-11-30T09:58:48.411Z,84.11
2022-11-30T10:00:51.080Z,84.25
2022-11-30T10:02:56.720Z,84.91
2022-11-30T10:04:59.984Z,84.94
2022-11-30T10:07:27.298Z,83.99
2022-11-30T10:09:57.556Z,84.21
2022-11-30T10:12:26.767Z,84.82
2022-11-30T10:14:48.107Z,84.62
2022-11-30T10:17:22.766Z,85.42
2022-11-30T10:20:02.609Z,85.05
2022-11-30T10:22:37.097Z,85.54
2022-11-30T10:25:11.737Z,84.94
2022-11-30T10:27:44.765Z,85.30
2022-11-30T10:29:47.430Z,85.53
2022-11-30T10:31:56.755Z,85.18
2022-11-30T10:34:15.359Z,85.61
2022-11-30T10:36:29.808Z,85.44
2022-11-30T10:38:40.258Z,85.81
2022-11-30T10:40:58.108Z,85.61
2022-11-30T10:43:26.979Z,85.20
2022-11-30T10:45:31.137Z,86.44
2022-11-30T10:47:37.337Z,87.01
2022-11-30T10:49:45.556Z,86.98
2022-11-30T10:51:54.305Z,85.08
2022-11-30T10:53:58.925Z,84.62
2022-11-30T10:56:12.706Z,84.16
2022-11-30T10:58:38.654Z,84.45
2022-11-30T11:00:50.883Z,85.36
2022-11-30T11:02:53.868Z,85.34
2022-11-30T11:05:27.039Z,85.83
2022-11-30T11:07:32.156Z,86.07
2022-11-30T11:09:49.269Z,86.22
2022-11-30T11:11:58.071Z,85.65
2022-11-30T11:14:23.706Z,86.24
2022-11-30T11:16:26.632Z,86.18
2022-11-30T11:18:32.259Z,85.88
2022-11-30T11:20:39.196Z,85.88
2022-11-30T11:22:44.240Z,86.40
2022-11-30T11:24:49.147Z,85.58
2022-11-30T11:26:53.838Z,85.70
2022-11-30T11:29:01.123Z,86.24
2022-11-30T11:31:19.964Z,85.93
2022-11-30T11:33:29.970Z,86.24
2022-11-30T11:35:41.817Z,85.94
2022-11-30T11:37:52.055Z,86.18
2022-11-30T11:40:16.346Z,87.10
2022-11-30T11:42:22.463Z,86.67
2022-11-30T11:44:28.305Z,86.67
2022-11-30T11:46:33.364Z,87.11
2022-11-30T11:48:40.796Z,87.22
2022-11-30T11:51:06.623Z,87.70
2022-11-30T11:53:23.156Z,87.63
2022-11-30T11:55:26.033Z,88.47
2022-11-30T11:57:54.901Z,87.72
2022-11-30T12:00:05.745Z,87.48
2022-11-30T12:02:08.824Z,87.53
2022-11-30T12:04:30.341Z,87.90
2022-11-30T12:06:35.213Z,87.45
2022-11-30T12:08:56.898Z,88.28
2022-11-30T12:11:24.171Z,88.41
2022-11-30T12:13:34.196Z,88.48
2022-11-30T12:16:07.853Z,88.58
2022-11-30T12:18:24.182Z,89.32
2022-11-30T12:20:34.068Z,89.70
2022-11-30T12:23:04.740Z,90.24
2022-11-30T12:25:22.292Z,90.47
2022-11-30T12:27:53.396Z,90.47
2022-11-30T12:30:22.544Z,91.22
2022-11-30T12:32:56.183Z,91.48
2022-11-30T12:35:17.312Z,91.18
2022-11-30T12:37:22.890Z,91.03
2022-11-30T12:40:09.678Z,91.30
2022-11-30T12:42:30.076Z,91.13
2022-11-30T12:44:47.567Z,90.85
2022-11-30T12:47:32.106Z,91.35
2022-11-30T12:50:18.576Z,90.50
2022-11-30T12:52:39.170Z,90.74
2022-11-30T12:55:03.063Z,90.89
2022-11-30T12:57:18.076Z,90.31
2022-11-30T12:59:47.813Z,90.83
2022-11-30T13:02:14.733Z,89.73
2022-11-30T13:04:38.905Z,89.94
2022-11-30T13:06:53.877Z,89.85
2022-11-30T13:09:30.887Z,90.11
2022-11-30T13:11:42.016Z,90.05
2022-11-30T13:13:59.201Z,90.26
2022-11-30T13:16:06.313Z,89.96
2022-11-30T13:18:16.512Z,89.85
2022-11-30T13:20:45.448Z,89.87
2022-11-30T13:23:05.765Z,89.88
2022-11-30T13:26:05.817Z,89.52
2022-11-30T13:28:34.348Z,90.01
2022-11-30T13:30:48.610Z,89.85
2022-11-30T13:32:59.202Z,89.12
2022-11-30T13:35:29.723Z,89.51
2022-11-30T13:37:33.379Z,88.90
2022-11-30T13:39:50.903Z,88.78
2022-11-30T13:42:02.489Z,88.86
2022-11-30T13:44:05.580Z,89.40
2022-11-30T13:46:18.166Z,89.16
2022-11-30T13:48:38.213Z,89.09
2022-11-30T13:50:41.364Z,88.72
2022-11-30T13:52:59.414Z,88.82
2022-11-30T13:55:34.234Z,88.79
2022-11-30T13:57:56.643Z,88.94
2022-11-30T14:00:01.879Z,88.99
2022-11-30T14:02:33.869Z,89.20
2022-11-30T14:04:46.177Z,88.95
2022-11-30T14:06:50.988Z,88.87
2022-11-30T14:08:53.613Z,88.39
2022-11-30T14:11:34.316Z,87.35
2022-11-30T14:13:37.022Z,88.25
2022-11-30T14:15:39.502Z,88.40
2022-11-30T14:17:42.239Z,87.67
2022-11-30T14:19:52.168Z,88.37
2022-11-30T14:21:55.560Z,88.45
2022-11-30T14:24:29.497Z,88.96
2022-11-30T14:26:42.794Z,88.09
2022-11-30T14:29:09.841Z,88.25
2022-11-30T14:31:18.661Z,88.89
2022-11-30T14:33:38.635Z,88.27
2022-11-30T14:35:43.387Z,88.23
2022-11-30T14:37:54.442Z,88.26
2022-11-30T14:40:03.131Z,89.30
2022-11-30T14:42:06.885Z,88.85
2022-11-30T14:44:15.710Z,89.73
2022-11-30T14:46:18.592Z,89.68
2022-11-30T14:48:22.304Z,90.20
2022-11-30T14:50:26.951Z,90.47
2022-11-30T14:52:32.285Z,90.27
2022-11-30T14:54:46.046Z,90.46
2022-11-30T14:56:52.881Z,90.25
2022-11-30T14:59:03.895Z,90.63
2022-11-30T15:01:21.460Z,90.61
2022-11-30T15:03:27.889Z,90.57
2022-11-30T15:05:31.229Z,90.61
2022-11-30T15:07:37.238Z,90.65
2022-11-30T15:09:43.948Z,90.47
2022-11-30T15:11:48.886Z,90.67
2022-11-30T15:13:54.516Z,90.19
2022-11-30T15:15:57.215Z,90.00
2022-11-30T15:18:14.379Z,90.22
2022-11-30T15:20:40.363Z,90.44
2022-11-30T15:22:42.976Z,90.66
2022-11-30T15:24:45.790Z,90.83
2022-11-30T15:26:54.816Z,90.98
2022-11-30T15:29:07.659Z,90.82
2022-11-30T15:31:15.040Z,90.68
2022-11-30T15:33:20.541Z,89.38
2022-11-30T15:35:34.348Z,89.13
2022-11-30T15:37:49.177Z,88.93
2022-11-30T15:39:55.837Z,88.93
2022-11-30T15:42:01.548Z,88.97
2022-11-30T15:44:04.292Z,89.08
2022-11-30T15:46:07.546Z,89.64
2022-11-30T15:48:36.433Z,88.89
2022-11-30T15:50:40.516Z,88.28
2022-11-30T15:52:45.070Z,88.33
2022-11-30T15:54:52.948Z,88.77
2022-11-30T15:56:57.735Z,88.64
2022-11-30T15:59:25.459Z,89.05
2022-11-30T16:01:28.871Z,89.26
2022-11-30T16:03:52.375Z,88.54
2022-11-30T16:06:00.652Z,88.38
2022-11-30T16:08:03.931Z,88.14
2022-11-30T16:10:15.927Z,88.41
2022-11-30T16:12:29.659Z,88.87
2022-11-30T16:14:32.285Z,88.91
2022-11-30T16:16:35.090Z,88.94
2022-11-30T16:18:37.786Z,89.14
2022-11-30T16:20:44.240Z,89.01
2022-11-30T16:22:48.096Z,89.49
2022-11-30T16:24:50.809Z,89.09
2022-11-30T16:26:53.524Z,89.10
2022-11-30T16:28:57.907Z,89.33
2022-11-30T16:31:01.023Z,89.38
2022-11-30T16:33:03.884Z,90.00
2022-11-30T16:35:20.969Z,89.33
2022-11-30T16:37:23.623Z,89.86
2022-11-30T16:39:26.809Z,89.88
2022-11-30T16:41:29.941Z,89.37
2022-11-30T16:43:33.973Z,89.58
2022-11-30T16:45:38.574Z,89.24
2022-11-30T16:47:42.688Z,89.50
2022-11-30T16:49:45.635Z,89.81
2022-11-30T16:51:48.617Z,89.68
2022-11-30T16:53:51.416Z,89.41
2022-11-30T16:55:54.071Z,89.30
2022-11-30T16:57:56.771Z,89.18
2022-11-30T16:59:59.411Z,89.38
2022-11-30T17:02:02.154Z,89.52
2022-11-30T17:04:10.755Z,89.53
2022-11-30T17:06:22.253Z,90.35
2022-11-30T17:08:25.195Z,89.74
2022-11-30T17:10:28.142Z,89.77
2022-11-30T17:12:31.036Z,90.17
2022-11-30T17:14:33.642Z,89.56
2022-11-30T17:16:36.433Z,90.03
2022-11-30T17:18:39.184Z,90.07
2022-11-30T17:20:42.060Z,89.46
2022-11-30T17:22:45.524Z,89.63
2022-11-30T17:24:48.411Z,89.66
2022-11-30T17:26:51.268Z,89.98
2022-11-30T17:28:54.005Z,89.88
2022-11-30T17:30:56.682Z,89.98
2022-11-30T17:32:59.344Z,89.70
2022-11-30T17:35:02.054Z,90.11
2022-11-30T17:37:06.204Z,89.29
2022-11-30T17:39:09.705Z,87.86
2022-11-30T17:41:19.604Z,88.41
2022-11-30T17:43:22.969Z,88.54
2022-11-30T17:45:25.562Z,88.56
2022-11-30T17:47:28.190Z,89.06
2022-11-30T17:49:30.772Z,89.40
2022-11-30T17:51:33.601Z,89.66
2022-11-30T17:53:38.598Z,89.51
2022-11-30T17:55:41.325Z,89.84
2022-11-30T17:57:43.982Z,89.95
2022-11-30T17:59:46.531Z,89.90
2022-11-30T18:01:49.186Z,89.40
2022-11-30T18:03:53.353Z,89.93
2022-11-30T18:06:02.873Z,89.50
2022-11-30T18:08:05.519Z,89.54
2022-11-30T18:10:09.604Z,89.35
2022-11-30T18:12:13.369Z,89.38
2022-11-30T18:14:16.084Z,89.34
2022-11-30T18:16:22.940Z,89.03
2022-11-30T18:18:25.577Z,89.32
2022-11-30T18:20:29.454Z,90.28
2022-11-30T18:22:33.028Z,89.88
2022-11-30T18:24:35.650Z,89.40
2022-11-30T18:26:39.103Z,89.02
2022-11-30T18:28:42.337Z,89.31
2022-11-30T18:30:45.106Z,89.45
2022-11-30T18:32:47.912Z,89.42
2022-11-30T18:34:50.666Z,89.47
2022-11-30T18:36:53.425Z,89.75
2022-11-30T18:38:56.191Z,89.87
2022-11-30T18:40:59.075Z,90.39
2022-11-30T18:43:01.705Z,90.18
2022-11-30T18:45:04.839Z,90.01
2022-11-30T18:47:07.476Z,89.76
2022-11-30T18:49:10.241Z,90.03
2022-11-30T18:51:18.198Z,90.48
2022-11-30T18:53:20.855Z,90.00
2022-11-30T18:55:24.734Z,89.95
2022-11-30T18:57:27.411Z,89.79
2022-11-30T18:59:29.995Z,90.64
2022-11-30T19:01:33.506Z,90.50
2022-11-30T19:03:37.208Z,89.81
2022-11-30T19:05:40.993Z,90.34
2022-11-30T19:07:43.641Z,89.83
2022-11-30T19:09:46.425Z,89.90
2022-11-30T19:11:49.481Z,90.00
2022-11-30T19:13:56.941Z,89.04
2022-11-30T19:16:08.128Z,88.68
2022-11-30T19:18:11.757Z,89.10
2022-11-30T19:20:14.684Z,88.17
2022-11-30T19:22:17.209Z,88.37
2022-11-30T19:24:19.867Z,88.68
2022-11-30T19:26:22.469Z,88.39
2022-11-30T19:28:25.051Z,88.84
2022-11-30T19:30:27.851Z,88.14
2022-11-30T19:32:30.451Z,88.71
2022-11-30T19:34:33.024Z,88.53
2022-11-30T19:36:35.928Z,88.42
2022-11-30T19:38:38.687Z,88.35
2022-11-30T19:40:41.220Z,87.92
2022-11-30T19:42:43.745Z,87.85
2022-11-30T19:44:46.750Z,88.18
2022-11-30T19:46:50.542Z,87.90
2022-11-30T19:48:57.970Z,88.04
2022-11-30T19:51:07.996Z,87.50
2022-11-30T19:53:11.907Z,87.40
2022-11-30T19:55:14.506Z,88.11
2022-11-30T19:57:17.056Z,87.68
2022-11-30T19:59:19.747Z,88.03
2022-11-30T20:01:24.841Z,87.29
2022-11-30T20:03:27.649Z,87.11
2022-11-30T20:05:30.696Z,87.14
2022-11-30T20:07:34.905Z,87.07
2022-11-30T20:09:37.551Z,87.83
2022-11-30T20:11:40.351Z,87.76
2022-11-30T20:13:44.057Z,87.57
2022-11-30T20:15:46.670Z,87.19
2022-11-30T20:17:49.301Z,87.11
2022-11-30T20:19:51.925Z,87.24
2022-11-30T20:21:54.587Z,87.01
2022-11-30T20:23:59.445Z,87.12
2022-11-30T20:26:02.038Z,87.41
2022-11-30T20:28:09.631Z,86.88
2022-11-30T20:30:14.997Z,86.95
2022-11-30T20:32:18.155Z,86.92
2022-11-30T20:34:20.889Z,87.03
2022-11-30T20:36:23.589Z,87.28
2022-11-30T20:38:26.142Z,87.21
2022-11-30T20:40:28.688Z,87.51
2022-11-30T20:42:31.323Z,86.90
2022-11-30T20:44:33.936Z,87.67
2022-11-30T20:46:36.989Z,87.51
2022-11-30T20:48:39.808Z,87.95
2022-11-30T20:50:43.818Z,87.44
2022-11-30T20:52:50.713Z,87.51
2022-11-30T20:54:53.348Z,87.50
2022-11-30T20:56:57.434Z,87.85
2022-11-30T20:59:06.115Z,87.51
2022-11-30T21:01:17.549Z,87.77
2022-11-30T21:03:20.077Z,87.92
2022-11-30T21:05:22.635Z,87.87
2022-11-30T21:07:25.237Z,88.28
2022-11-30T21:09:27.897Z,88.12
2022-11-30T21:11:31.215Z,88.50
2022-11-30T21:13:34.909Z,88.46
2022-11-30T21:15:37.590Z,88.76
2022-11-30T21:17:40.237Z,88.86
2022-11-30T21:19:42.791Z,88.67
2022-11-30T21:21:45.379Z,88.61
2022-11-30T21:23:49.384Z,88.86
2022-11-30T21:25:51.984Z,88.63
2022-11-30T21:27:54.603Z,88.50
2022-11-30T21:29:57.348Z,88.65
2022-11-30T21:31:59.998Z,88.41
2022-11-30T21:34:03.053Z,88.50
2022-11-30T21:36:07.867Z,88.29
2022-11-30T21:38:10.411Z,88.49
2022-11-30T21:40:13.256Z,88.11
2022-11-30T21:42:15.841Z,88.49
2022-11-30T21:44:18.740Z,88.67
2022-11-30T21:46:21.945Z,88.70
2022-11-30T21:48:24.713Z,88.68
2022-11-30T21:50:27.549Z,88.91
2022-11-30T21:52:30.173Z,89.00
2022-11-30T21:54:32.680Z,88.67
2022-11-30T21:56:38.367Z,88.56
2022-11-30T21:58:42.639Z,88.59
2022-11-30T22:00:45.206Z,88.50
2022-11-30T22:02:48.763Z,88.33
2022-11-30T22:04:51.413Z,88.32
2022-11-30T22:06:53.991Z,88.35
2022-11-30T22:09:03.236Z,88.43
2022-11-30T22:11:11.850Z,88.38
2022-11-30T22:13:14.434Z,88.74
2022-11-30T22:15:17.104Z,88.48
2022-11-30T22:17:19.825Z,88.71
2022-11-30T22:19:22.491Z,89.20
2022-11-30T22:21:27.487Z,88.79
2022-11-30T22:23:30.147Z,89.13
2022-11-30T22:25:32.689Z,88.79
2022-11-30T22:27:37.004Z,88.67
2022-11-30T22:29:39.602Z,88.79
2022-11-30T22:31:44.943Z,88.61
2022-11-30T22:33:48.466Z,89.08
2022-11-30T22:35:51.253Z,88.85
2022-11-30T22:37:54.923Z,89.29
2022-11-30T22:39:57.649Z,88.83
2022-11-30T22:42:00.206Z,88.86
2022-11-30T22:44:03.049Z,89.02
2022-11-30T22:46:11.539Z,89.05
2022-11-30T22:48:14.119Z,88.79
2022-11-30T22:50:16.753Z,88.86
2022-11-30T22:52:28.096Z,89.17
2022-11-30T22:54:39.148Z,89.43
2022-11-30T22:56:41.998Z,89.43
2022-11-30T22:58:47.277Z,89.58
2022-11-30T23:00:49.953Z,89.85
2022-11-30T23:02:52.559Z,89.67
2022-11-30T23:04:55.230Z,89.87
2022-11-30T23:06:58.067Z,89.94
2022-11-30T23:09:00.916Z,89.72
2022-11-30T23:11:07.167Z,89.73
2022-11-30T23:13:09.717Z,89.70
2022-11-30T23:15:12.196Z,89.92
2022-11-30T23:17:14.821Z,90.02
2022-11-30T23:19:18.313Z,89.96
2022-11-30T23:21:28.325Z,89.93
2022-11-30T23:23:32.461Z,90.07
2022-11-30T23:25:34.962Z,89.64
2022-11-30T23:27:37.569Z,89.56
2022-11-30T23:29:40.607Z,89.44
2022-11-30T23:31:44.518Z,89.61
2022-11-30T23:33:48.142Z,89.71
2022-11-30T23:35:50.754Z,89.74
2022-11-30T23:37:53.334Z,89.71
2022-11-30T23:39:55.888Z,89.55
2022-11-30T23:41:58.532Z,89.77
2022-11-30T23:44:01.924Z,89.44
2022-11-30T23:46:06.311Z,89.87
2022-11-30T23:48:10.449Z,89.46
2022-11-30T23:50:13.062Z,89.83
2022-11-30T23:52:15.559Z,89.94
2022-11-30T23:54:18.224Z,89.58
2022-11-30T23:56:22.375Z,89.70
2022-11-30T23:58:24.874Z,89.78
